Tiempo atmosférico en la estación meteorológica de Fuengirola, Málaga (3 m.)



Fecha
DESCASC
Temp. máxima en grados centígrados (hora)
DESCASC
Temp. mínima en grados centígrados (hora)
DESCASC
Temp. media en grados centígrados
DESCASC
Racha de viento máxima en m/sg (hora)
DESCASC
Velocidad máxima media en intervalos de 10 minutos(hora)
DESCASC
Precipitaciones diarias en mm
DESCASC
Precipitaciones de 00:00 a 06:00 en mm
DESCASC
Precipitaciones de 06:00 a 12:00 en mm
DESCASC
Precipitaciones de 12:00 a 18:00 en mm
DESCASC
Precipitaciones de 18:00 a 24:00 en mm
DESCASC
23-06-2019 23.1 (15:50) 19.6 (05:40) 21.4 3.06 (16:50) 2.22 (18:50) 0 0 0 0 0
22-06-2019 23.9 (16:50) 18.8 (02:10) 21.3 9.72 (03:40) 6.11 (03:40) 0 0 0 0 0
21-06-2019 28 (21:20) 18.6 (01:40) 23.3 9.17 (11:50) 4.72 (07:50) 0 0 0 0 0
20-06-2019 26.7 (18:20) 19.2 (00:00) 23 12.78 (15:00) 3.89 (15:00) 0 0 0 0 0
19-06-2019 28.6 (19:00) 18.8 (00:00) 23.7 8.06 (18:20) 5.28 (13:00) 0 0 0 0 0
18-06-2019 25.2 (20:00) 16.8 (00:00) 21 7.5 (18:30) 5.56 (15:10) 0 0 0 0 0
17-06-2019 21.3 (19:40) 17.4 (00:00) 19.3 5.56 (18:40) 4.17 (18:50) 0 0 0 0 0
16-06-2019 23.7 (18:30) 17.4 (00:00) 20.6 8.06 (05:10) 5 (05:30) 0 0 0 0 0
15-06-2019 25.5 (19:30) 17.3 (00:00) 21.4 8.33 (17:10) 5.28 (13:40) 0 0 0 0 0
14-06-2019 26.2 (13:20) 18.1 (00:00) 22.2 12.78 (14:50) 4.72 (09:00) 0 0 0 0 0
13-06-2019 23.4 (15:50) 18.5 (00:00) 20.9 5.56 (23:50) 2.78 (02:50) 0 0 0 0 0
12-06-2019 25.2 (01:20) 18.4 (00:00) 21.8 16.39 (02:30) 10 (02:30) 0 0 0 0 0
11-06-2019 25.1 (23:30) 18.3 (00:00) 21.7 12.22 (14:40) 3.61 (15:10) 0 0 0 0 0
10-06-2019 25.1 (20:30) 19 (00:00) 22.1 11.94 (14:10) 3.33 (04:00) 0 0 0 0 0
09-06-2019 25.6 (19:20) 19.4 (00:00) 22.5 10.56 (19:00) 4.44 (11:20) 0 0 0 0 0
08-06-2019 23.1 (18:10) 18.2 (00:00) 20.7 9.44 (06:30) 6.39 (04:40) 0 0 0 0 0
07-06-2019 24.9 (20:30) 18.3 (00:00) 21.6 9.72 (16:30) 4.72 (13:10) 0 0 0 0 0
06-06-2019 24.4 (20:20) 18.2 (00:00) 21.3 8.89 (20:10) 4.72 (12:20) 0 0 0 0 0
05-06-2019 24.5 (14:00) 19.7 (00:00) 22.1 10.83 (16:40) 6.11 (16:40) 0 0 0 0 0
04-06-2019 28 (18:10) 17.4 (00:00) 22.7 12.5 (21:10) 6.11 (16:40) 0 0 0 0 0
03-06-2019 22.5 (18:40) 18.2 (00:00) 20.4 4.17 (10:30) 2.78 (10:30) 0 0 0 0 0
02-06-2019 23.4 (15:30) 17.9 (00:00) 20.6 5 (03:30) 3.06 (03:30) 0 0 0 0 0
01-06-2019 23.9 (16:40) 18.4 (00:00) 21.1 5.28 (08:30) 3.61 (15:00) 0 0 0 0 0
31-05-2019 23.6 (17:10) 19.1 (00:00) 21.4 6.94 (02:30) 4.72 (02:40) 0 0 0 0 0
30-05-2019 22.3 (18:10) 18.8 (00:00) 20.5 7.22 (11:10) 5 (11:00) 0 0 0 0 0
29-05-2019 23.3 (13:30) 19.5 (00:00) 21.4 8.61 (04:20) 6.11 (02:30) 0 0 0 0 0
28-05-2019 23.6 (17:10) 18 (00:00) 20.8 5 (23:20) 3.33 (23:20) 0 0 0 0 0

Gráficas

Temp. máximas Temp. mínimas Temp. medias Precipitaciones Rachas de viento máximas Velocidades máximas media en intervalos de 10 minutos

Datos horarios

Fecha y hora oficial Temperatura (ºC) Velocidad del viento (km/h) Dirección del viento Racha (km/h) Dirección de racha Precipitación (mm) Presión (hPa) Tendencia (hPa) Humedad (%)
2019-06-26 23:00:00 23.6 2 Sudoeste 6 Sudoeste 0 1016.3 1.9 82
2019-06-26 22:00:00 23.3 3 Sudoeste 9 Sudoeste 0 1015.4 1.3 86
2019-06-26 21:00:00 23.2 5 Sudoeste 13 Sudoeste 0 1014.8 0.5 87
2019-06-26 20:00:00 23.6 6 Sudoeste 18 Sudoeste 0 1014.4 -0.4 85
2019-06-26 19:00:00 22.8 13 Sudoeste 19 Sudoeste 0 1014.1 -1.2 89
2019-06-26 18:00:00 23 14 Sur 21 Sur 0 1014.3 -1.7 88
2019-06-26 17:00:00 22.8 15 Sudoeste 21 Sudoeste 0 1014.8 -2 86
2019-06-26 16:00:00 22.4 14 Sur 19 Sur 0 1015.3 -2 94
2019-06-26 15:00:00 22.9 9 Sur 13 Sur 0 1016 -1.5 90
2019-06-26 14:00:00 22.8 4 Sudeste 9 Sudeste 0 1016.8 -0.6 93
2019-06-26 13:00:00 22.4 5 Sur 9 Sur 0 1017.3 0.2 97
2019-06-26 12:00:00 22.3 4 Sudeste 10 Sudeste 0 1017.5 1 98
2019-06-26 11:00:00 21.3 3 Sudeste 9 Sur 0 1017.4 1.5 98
2019-06-26 10:00:00 21.2 4 Sudeste 5 Sur 0 1017.1 1.8 95
2019-06-26 09:00:00 21 0 Calma 5 Sudeste 0 1016.5 1.7 96
2019-06-26 08:00:00 20.5 0 Calma 4 Sudeste 0 1015.9 1.4 97
2019-06-26 07:00:00 20.4 0 Calma 5 Sur 0 1015.3 0.4 98
2019-06-26 06:00:00 20.7 3 Sudoeste 7 Sudoeste 0 1014.8 -0.8 96
2019-06-26 05:00:00 20.6 5 Oeste 10 Oeste 0 1014.5 -1.1 98
2019-06-26 04:00:00 20.8 0 Calma 6 Nordeste 0 1014.9 -0.7 99
2019-06-26 03:00:00 21.1 5 Este 8 Este 0 1015.6 0.4 99
2019-06-26 02:00:00 21.4 0 Calma 3 Sudeste 0 1015.6 0.8 98
2019-06-26 01:00:00 21.5 0 Calma 3 Sudeste 0 1015.6 1.6 98
2019-06-26 00:00:00 21.9 0 Calma 5 Sudeste 0 1015.2 1.5 96
2019-06-25 23:00:00 21.9 3 Este 6 Este 0 1014.8 1.4 96
2019-06-25 22:00:00 22.1 3 Este 6 Este 0 1014 0.6 95
2019-06-25 21:00:00 23 4 Este 9 Sudeste 0 1013.7 0.1 91
2019-06-25 20:00:00 23.7 6 Este 10 Este 0 1013.4 -0.3 90
2019-06-25 19:00:00 23.9 6 Este 11 Este 0 1013.4 -0.5 88
2019-06-25 18:00:00 24.3 7 Este 13 Este 0 1013.6 -0.5 90
2019-06-25 17:00:00 23.5 5 Este 12 Este 0 1013.7 -0.7 92
2019-06-25 16:00:00 23 7 Este 12 Sudeste 0 1013.9 -0.8 93
2019-06-25 15:00:00 22.3 5 Sudeste 8 Sur 0 1014.1 -0.7 95
2019-06-25 14:00:00 21.8 4 Sudeste 8 Sur 0 1014.4 -0.4 96
2019-06-25 13:00:00 21.1 4 Sur 10 Sur 0 1014.7 -0.1 98
2019-06-25 12:00:00 21.2 4 Sur 9 Sur 0 1014.8 0.4 98
2019-06-25 11:00:00 20.7 3 Sudeste 10 Este 0 1014.8 0.5 98
2019-06-25 10:00:00 20.6 6 Este 21 Este 0 1014.8 1.1 99
2019-06-25 09:00:00 20.2 14 Este 23 Este 0 1014.4 1.2 99
2019-06-25 08:00:00 19.6 18 Este 51 Este 0 1014.3 1.2 99
2019-06-25 07:00:00 19.9 16 Este 23 Este 0 1013.7 0.5 99
2019-06-25 06:00:00 19.6 0 Calma 8 Sudeste 0 1013.2 0 99
2019-06-25 05:00:00 19.8 4 Nordeste 8 Norte 0 1013.1 -0.3 99
2019-06-25 04:00:00 19.7 5 Nordeste 8 Nordeste 0 1013.2 0 99
2019-06-25 03:00:00 19.7 3 Nordeste 5 Nordeste 0 1013.2 -0.4 99
2019-06-25 02:00:00 19.4 0 Calma 9 Sur 0 1013.4 0.5 99
2019-06-25 01:00:00 19.9 2 Este 8 Nordeste 0 1013.2 0.6 99
2019-06-25 00:00:00 19.8 3 Sur 12 Sur 0 1013.6 1.5 98
2019-06-24 23:00:00 20.2 8 Sudoeste 13 Sudoeste 0 1012.9 1 97
2019-06-24 22:00:00 21.7 3 Oeste 18 Oeste 0 1012.6 0.3 88
2019-06-24 21:00:00 22.8 6 Sudoeste 21 Sudoeste 0 1012.1 -0.6 79
2019-06-24 20:00:00 23.6 4 Oeste 17 Sudoeste 0 1011.9 -0.9 77
2019-06-24 19:00:00 23.5 8 Sudoeste 20 Sudoeste 0 1012.3 -0.8 79
2019-06-24 18:00:00 21 13 Sudoeste 23 Sudoeste 0 1012.7 -0.4 95
2019-06-24 17:00:00 20.6 16 Sudoeste 22 Sudoeste 0 1012.8 -0.7 96
2019-06-24 16:00:00 20.6 16 Sudoeste 23 Sur 0 1013.1 -0.5 96
2019-06-24 15:00:00 20.3 16 Sudoeste 26 Sur 0 1013.1 -0.7 98
2019-06-24 14:00:00 19.8 18 Sudoeste 27 Sudoeste 0 1013.5 -0.1 99
2019-06-24 13:00:00 19.3 14 Sudoeste 22 Sur 0 1013.6 0.1 99
2019-06-24 12:00:00 19.3 14 Sur 20 Sudoeste 0 1013.8 0.5 98
2019-06-24 11:00:00 19.2 13 Sudoeste 20 Sudoeste 0 1013.6 0.7 96
2019-06-24 10:00:00 20 6 Sudoeste 14 Sudoeste 0 1013.5 0.9 94
2019-06-24 09:00:00 20.3 4 Sudoeste 10 Oeste 0 1013.3 0.7 86
2019-06-24 08:00:00 20 3 Noroeste 8 Noroeste 0 1012.9 0.3 86
2019-06-24 07:00:00 19.7 2 Oeste 9 Oeste 0 1012.6 -0.4 87
2019-06-24 06:00:00 20 0 Calma 8 Oeste 0 1012.6 -0.7 87
2019-06-24 05:00:00 20.1 0 Calma 9 Oeste 0 1012.6 -1 87
2019-06-24 04:00:00 20.3 4 Oeste 8 Oeste 0 1013 -0.7 88
2019-06-24 03:00:00 19.9 3 Oeste 6 Oeste 0 1013.3 0 92
2019-06-24 02:00:00 21.2 2 Sudeste 5 Oeste 0 1013.6 1 87
2019-06-24 01:00:00 21.4 0 Calma 8 Oeste 0 1013.7 1.8 88
2019-06-24 00:00:00 21.1 0 Calma 7 Sudoeste 0 1013.3 1.6 92
2019-06-23 23:00:00 21.2 0 Calma 4 Norte 0 1012.6 1.2 89
2019-06-23 22:00:00 21.2 3 Nordeste 6 Sudoeste 0 1011.9 0.4 90
2019-06-23 21:00:00 21.4 3 Sudoeste 10 Sur 0 1011.7 0 90
2019-06-23 20:00:00 21.8 3 Sudoeste 9 Sur 0 1011.4 -0.7 89
2019-06-23 19:00:00 22.3 6 Sudoeste 10 Sudoeste 0 1011.5 -1.2 90
2019-06-23 18:00:00 22.2 5 Sudoeste 9 Sudoeste 0 1011.7 -1.7 91
2019-06-23 17:00:00 22.8 6 Sur 11 Sur 0 1012.1 -1.7 87
2019-06-23 16:00:00 22.9 5 Sudeste 6 Sudeste 0 1012.7 -1.2 83
2019-06-23 15:00:00 22.7 4 Este 8 Este 0 1013.4 -0.3 85
2019-06-23 14:00:00 22 3 Sudeste 6 Este 0 1013.8 0.1 89
2019-06-23 13:00:00 21.2 0 Calma 4 Sudeste 0 1013.9 0.4 93
2019-06-23 12:00:00 21.4 2 Sudeste 4 Sur 0 1013.7 0.4 93
2019-06-23 11:00:00 21.3 2 Sur 5 Sudeste 0 1013.7 0.4 93
2019-06-23 10:00:00 21.1 3 Sudeste 5 Sudeste 0 1013.5 0.3 95
2019-06-23 09:00:00 20.4 0 Calma 2 Nordeste 0 1013.3 0.5 95
2019-06-23 08:00:00 19.7 0 Calma 3 Sudeste 0 1013.3 0.1 95
2019-06-23 07:00:00 20 0 Calma 2 Oeste 0 1013.2 0 95
2019-06-23 06:00:00 20.1 2 Nordeste 4 Nordeste 0 1012.8 -0.7 96
2019-06-23 05:00:00 20.2 2 Nordeste 5 Nordeste 0 1013.2 -0.5 98
2019-06-23 04:00:00 20.2 2 Nordeste 4 Nordeste 0 1013.2 -0.7 98
2019-06-23 03:00:00 20.4 0 Calma 3 Sudeste 0 1013.5 -0.5 97
2019-06-23 02:00:00 20.6 0 Calma 3 Este 0 1013.7 -0.1 96
2019-06-23 01:00:00 20.7 0 Calma 5 Nordeste 0 1013.9 0.3 96
2019-06-23 00:00:00 21.2 3 Nordeste 8 Este 0 1014 0.4 95
2019-06-22 23:00:00 21.4 3 Nordeste 10 Sudeste 0 1013.8 0.5 92
2019-06-22 22:00:00 21.8 8 Sudeste 11 Sudeste 0 1013.6 0.4 90
2019-06-22 21:00:00 22.2 5 Este 9 Nordeste 0 1013.6 0.3 87
2019-06-22 20:00:00 23.3 5 Este 8 Sudeste 0 1013.3 -0.4 84
2019-06-22 19:00:00 23.2 3 Sudeste 8 Sudeste 0 1013.2 -1.3 85
2019-06-22 18:00:00 23.5 4 Sudeste 8 Este 0 1013.3 -1.8 83
2019-06-22 17:00:00 23.9 5 Este 10 Este 0 1013.7 -1.9 84
2019-06-22 16:00:00 23.4 6 Este 12 Nordeste 0 1014.5 -1.3 88
2019-06-22 15:00:00 22.5 6 Nordeste 15 Sudeste 0 1015.1 -0.4 90
2019-06-22 14:00:00 22.3 12 Sudeste 16 Sudeste 0 1015.6 0.5 88
2019-06-22 13:00:00 21.9 10 Este 17 Este 0 1015.8 0.4 91
2019-06-22 12:00:00 20.8 13 Sudeste 18 Este 0 1015.5 0.3 93
2019-06-22 11:00:00 20.5 10 Sudeste 17 Este 0 1015.1 -0.1 92
2019-06-22 10:00:00 20.7 10 Este 26 Este 0 1015.4 0.6 92
2019-06-22 09:00:00 19.6 14 Este 23 Este 0 1015.2 1.2 95
2019-06-22 08:00:00 19.4 18 Este 31 Nordeste 0 1015.2 1.9 96
2019-06-22 07:00:00 20 22 Este 32 Este 0 1014.8 1.4 93
2019-06-22 06:00:00 20.3 19 Nordeste 33 Este 0 1014 0.4 87
2019-06-22 05:00:00 20.1 19 Este 27 Este 0 1013.3 0 84
2019-06-22 04:00:00 20.4 18 Este 35 Nordeste 0 1013.4 0 80
2019-06-22 03:00:00 19.1 9 Nordeste 28 Este 0 1013.6 0.7 90
2019-06-22 02:00:00 19 22 Este 32 Este 0 1013.3 1.1 91
2019-06-22 01:00:00 19.3 19 Este 28 Este 0 1013.4 2.2 87
2019-06-22 00:00:00 21.1 14 Este 26 Sudeste 0 1012.9 1.8 76
2019-06-21 23:00:00 21.8 6 Sur 18 Sudeste 0 1012.2 1.3 71
2019-06-21 22:00:00 27.2 3 Oeste 17 Oeste 0 1011.2 0.4 49
2019-06-21 21:00:00 27.6 5 Oeste 26 Oeste 0 1011.1 0.2 50
2019-06-21 20:00:00 27.2 7 Oeste 21 Oeste 0 1010.9 -0.3 53
2019-06-21 19:00:00 27.4 5 Oeste 25 Oeste 0 1010.8 -0.9 52
2019-06-21 18:00:00 25.3 11 Sudoeste 24 Sudoeste 0 1010.9 -1.3 57
2019-06-21 17:00:00 27.1 7 Sudoeste 30 Oeste 0 1011.2 -1.4 52
2019-06-21 16:00:00 26.3 7 Oeste 24 Oeste 0 1011.7 -1.3 57
2019-06-21 15:00:00 24.9 7 Sudoeste 31 Sudoeste 0 1012.2 -0.8 62
2019-06-21 14:00:00 23.9 8 Sudoeste 28 Sudoeste 0 1012.6 -0.4 65
2019-06-21 13:00:00 22.5 7 Oeste 26 Sudoeste 0 1013 0 71
2019-06-21 12:00:00 21.9 9 Sudoeste 33 Sur 0 1013 0.5 74
2019-06-21 11:00:00 19.5 14 Sudoeste 25 Sudoeste 0 1013 1 84
2019-06-21 10:00:00 20.1 9 Sur 22 Sur 0 1013 1.4 81
2019-06-21 09:00:00 20.6 14 Sudeste 18 Sur 0 1012.5 1.2 76
2019-06-21 08:00:00 19.9 12 Sur 23 Sur 0 1012 0.6 78
2019-06-21 07:00:00 21.4 15 Sur 25 Sur 0 1011.6 0.3 71
2019-06-21 06:00:00 21.9 11 Sudoeste 19 Sur 0 1011.3 -0.2 69
2019-06-21 05:00:00 19.1 9 Sur 16 Sudoeste 0 1011.4 -0.2 83
2019-06-21 04:00:00 20.8 3 Sudoeste 13 Sudoeste 0 1011.3 -0.3 75
2019-06-21 03:00:00 20.4 3 Oeste 14 Sur 0 1011.5 -0.1 79
2019-06-21 02:00:00 19.2 4 Sur 20 Sur 0 1011.6 0.5 87
2019-06-21 01:00:00 19.6 5 Sudoeste 13 Sur 0 1011.6 0.9 82
2019-06-21 00:00:00 20.9 4 Sudoeste 17 Sur 0 1011.6 1.2 76
2019-06-20 23:00:00 22.6 0 Calma 19 Oeste 0 1011.1 0.7 65
2019-06-20 22:00:00 23.8 9 Oeste 30 Oeste 0 1010.7 0.3 59
2019-06-20 21:00:00 25.2 8 Oeste 32 Oeste 0 1010.4 -0.4 56
2019-06-20 20:00:00 26.5 8 Oeste 35 Oeste 0 1010.4 -0.7 55
2019-06-20 19:00:00 26.3 7 Oeste 46 Oeste 0 1010.4 -1.1 55
2019-06-20 18:00:00 26.1 8 Oeste 36 Noroeste 0 1010.8 -1 55
2019-06-20 17:00:00 26.3 9 Oeste 40 Oeste 0 1011.1 -1 55
2019-06-20 16:00:00 25.6 12 Sudoeste 37 Sudoeste 0 1011.5 -1 57
2019-06-20 15:00:00 25.7 14 Oeste 46 Oeste 0 1011.8 -0.7 58
2019-06-20 14:00:00 25.3 10 Oeste 37 Sudoeste 0 1012.1 -0.4 59
2019-06-20 13:00:00 24.8 8 Oeste 29 Sudoeste 0 1012.5 -0.1 63
2019-06-20 12:00:00 24.1 7 Sudoeste 20 Oeste 0 1012.5 0.1 67
2019-06-20 11:00:00 21.6 3 Sudoeste 19 Sur 0 1012.5 0.2 80
2019-06-20 10:00:00 20.4 9 Sudoeste 15 Sur 0 1012.6 0.8 86
2019-06-20 09:00:00 19.6 9 Sudoeste 16 Sudoeste 0 1012.4 1.2 88
2019-06-20 08:00:00 19.8 3 Sudoeste 12 Nordeste 0 1012.3 1.4 84
2019-06-20 07:00:00 21.4 6 Nordeste 14 Norte 0 1011.8 0.5 74
2019-06-20 06:00:00 21.8 0 Calma 13 Sudeste 0 1011.2 -0.3 71
2019-06-20 05:00:00 21.8 6 Oeste 13 Oeste 0 1010.9 -0.9 72
2019-06-20 04:00:00 19.7 4 Sudoeste 11 Sudoeste 0 1011.3 -0.6 89
2019-06-20 03:00:00 19.7 3 Sudoeste 14 Sudoeste 0 1011.5 -0.4 90
2019-06-20 02:00:00 19.8 3 Sudoeste 21 Sur 0 1011.8 0.2 92
2019-06-20 01:00:00 20.5 3 Sudoeste 13 Sudoeste 0 1011.9 0.7 87
2019-06-20 00:00:00 20.9 4 Sudoeste 13 Sur 0 1011.9 0.9 84
2019-06-19 23:00:00 23.5 5 Sudoeste 13 Oeste 0 1011.6 0.8 70
2019-06-19 22:00:00 24.9 2 Sur 16 Oeste 0 1011.2 0.1 66
2019-06-19 21:00:00 24.3 6 Sudoeste 15 Sudoeste 0 1011 -0.8 69
2019-06-19 20:00:00 25 6 Sudoeste 20 Sudoeste 0 1010.8 -1.5 66
2019-06-19 19:00:00 28.4 5 Oeste 29 Oeste 0 1011.1 -1.8 53
2019-06-19 18:00:00 27.1 7 Sudoeste 28 Oeste 0 1011.8 -1.6 59
2019-06-19 17:00:00 27 5 Sudoeste 24 Oeste 0 1012.3 -1.6 59
2019-06-19 16:00:00 25.1 6 Sudoeste 23 Sudoeste 0 1012.9 -1.1 65
2019-06-19 15:00:00 24.9 7 Sudoeste 24 Sudoeste 0 1013.4 -0.5 65
2019-06-19 14:00:00 23.8 8 Sudoeste 26 Sur 0 1013.9 0.2 69
2019-06-19 13:00:00 19.6 19 Sudoeste 27 Sudoeste 0 1014 0 90
2019-06-19 12:00:00 22.2 3 Este 12 Nordeste 0 1013.9 0.2 81
2019-06-19 11:00:00 20.8 3 Este 9 Nordeste 0 1013.7 0.2 85
2019-06-19 10:00:00 19.7 0 Calma 9 Nordeste 0 1014 0.9 88
2019-06-19 09:00:00 19.8 3 Norte 10 Nordeste 0 1013.7 0.9 88
2019-06-19 08:00:00 20 6 Nordeste 12 Nordeste 0 1013.5 0.5 86
2019-06-19 07:00:00 19.8 2 Nordeste 10 Nordeste 0 1013.1 0 83
2019-06-19 06:00:00 20.1 2 Sudoeste 13 Sur 0 1012.8 -0.5 82
2019-06-19 05:00:00 19.1 5 Sudoeste 12 Sur 0 1013 -0.8 89
2019-06-19 04:00:00 19.3 0 Calma 14 Oeste 0 1013.1 -0.5 89
2019-06-19 03:00:00 20.6 6 Oeste 14 Oeste 0 1013.3 -0.7 82
2019-06-19 02:00:00 20.6 4 Sudoeste 10 Sudoeste 0 1013.8 0.2 82
2019-06-19 01:00:00 20.1 4 Sudoeste 6 Sudoeste 0 1013.6 0.6 86
2019-06-19 00:00:00 20.5 0 Calma 8 Norte 0 1014 1.1 86
2019-06-18 23:00:00 20 4 Nordeste 15 Sur 0 1013.6 0.7 89
2019-06-18 22:00:00 20.1 8 Sur 17 Sudoeste 0 1013 0.1 87
2019-06-18 21:00:00 21.6 8 Sudoeste 21 Sudoeste 0 1012.9 -0.4 77
2019-06-18 20:00:00 25 5 Sudoeste 22 Sur 0 1012.9 -1 59
2019-06-18 19:00:00 22.4 6 Sudoeste 27 Sur 0 1012.9 -1.3 73
2019-06-18 18:00:00 21.3 10 Sudoeste 25 Sur 0 1013.3 -1.3 80
2019-06-18 17:00:00 22.4 10 Sudoeste 21 Sudoeste 0 1013.9 -1.1 71
2019-06-18 16:00:00 23 8 Sudoeste 27 Sur 0 1014.2 -0.9 66
2019-06-18 15:00:00 20.3 17 Sudoeste 26 Sudoeste 0 1014.6 -0.4 83
2019-06-18 14:00:00 22.1 13 Sudoeste 19 Sudoeste 0 1015 0.1 70
2019-06-18 13:00:00 21.8 4 Oeste 21 Sudoeste 0 1015.1 0 67
2019-06-18 12:00:00 20.4 9 Sudoeste 22 Sur 0 1015 0.1 82
2019-06-18 11:00:00 19.3 13 Sudoeste 18 Sudoeste 0 1014.9 0.3 93
2019-06-18 10:00:00 19.6 0 Calma 11 Sudoeste 0 1015.1 0.8 90
2019-06-18 09:00:00 18.3 0 Calma 9 Oeste 0 1014.9 0.9 83
2019-06-18 08:00:00 17.3 4 Oeste 8 Oeste 0 1014.6 0.3 80
2019-06-18 07:00:00 17.5 0 Calma 11 Oeste 0 1014.3 -0.1 78
2019-06-18 06:00:00 17.5 0 Calma 7 Oeste 0 1014 -0.7 80
2019-06-18 05:00:00 18 3 Oeste 11 Oeste 0 1014.3 -0.6 78
2019-06-18 04:00:00 17.3 0 Calma 6 Oeste 0 1014.4 -0.8 91
2019-06-18 03:00:00 18.5 0 Calma 0 Calma 0 1014.7 -0.3 99
2019-06-18 02:00:00 18.7 0 Calma -- -- 0 1014.9 0 98
2019-06-18 01:00:00 19.3 0 Calma 2 Oeste 0 1015.2 0.8 96
2019-06-18 00:00:00 19.3 0 Calma -- -- 0 1015 0.8 98
2019-06-17 23:00:00 19.3 0 Calma 2 Sur 0 1014.9 0.4 97
2019-06-17 22:00:00 19.6 0 Calma 13 Sur 0 1014.4 0 96
2019-06-17 21:00:00 20.5 6 Sudoeste 14 Sudoeste 0 1014.2 -0.5 92
2019-06-17 20:00:00 21.1 9 Sudoeste 17 Sudoeste 0 1014.5 -0.6 91
2019-06-17 19:00:00 20.8 12 Sudoeste 20 Sudoeste 0 1014.4 -1.4 93
2019-06-17 18:00:00 20.5 13 Sur 19 Sur 0 1014.7 -2 93
2019-06-17 17:00:00 20.7 6 Sur 11 Sur 0 1015.1 -2.1 93
2019-06-17 16:00:00 20.7 6 Sur 10 Sudoeste 0 1015.8 -1.5 92
2019-06-17 15:00:00 20.5 6 Sur 11 Sur 0 1016.7 -0.7 92
2019-06-17 14:00:00 20.3 2 Sur 7 Sur 0 1017.2 -0.4 91
2019-06-17 13:00:00 20 2 Sur 6 Sur 0 1017.3 -0.3 91
2019-06-17 12:00:00 19.6 0 Calma 7 Sur 0 1017.4 0.3 90
2019-06-17 11:00:00 19.6 0 Calma 5 Sur 0 1017.6 0.5 81
2019-06-17 10:00:00 18.7 0 Calma 3 Sudeste 0 1017.6 0.8 77
2019-06-17 09:00:00 18.6 0 Calma 4 Oeste 0 1017.1 0.4 72
2019-06-17 08:00:00 17.7 3 Noroeste 11 Oeste 0 1017.1 0.3 71
2019-06-17 07:00:00 17.4 5 Noroeste 10 Oeste 0 1016.8 -0.2 71
2019-06-17 06:00:00 18 4 Noroeste 9 Noroeste 0 1016.7 -0.8 69
2019-06-17 05:00:00 18.1 7 Oeste 13 Oeste 0 1016.8 -1 69
2019-06-17 04:00:00 18.7 4 Noroeste 9 Oeste 0 1017 -1.4 68
2019-06-17 03:00:00 19.1 4 Oeste 8 Oeste 0 1017.5 -0.9 68
2019-06-17 02:00:00 19.1 2 Oeste 4 Nordeste 0 1017.8 -0.4 73
2019-06-17 01:00:00 20.3 2 Este 11 Oeste 0 1018.4 0.5 69
2019-06-17 00:00:00 20.8 4 Oeste 7 Oeste 0 1018.4 0.9 69
2019-06-16 23:00:00 20.8 2 Sudoeste 4 Sudoeste 0 1018.2 0.6 72
2019-06-16 22:00:00 21.4 0 Calma 6 Nordeste 0 1017.9 0.2 68
2019-06-16 21:00:00 21.8 5 Nordeste 9 Nordeste 0 1017.5 -0.2 69
2019-06-16 20:00:00 22.5 5 Nordeste 12 Este 0 1017.6 0 65
2019-06-16 19:00:00 23.4 5 Nordeste 10 Este 0 1017.7 -0.1 63
2019-06-16 18:00:00 23.1 4 Nordeste 9 Este 0 1017.7 -0.5 63
2019-06-16 17:00:00 22.9 6 Este 12 Este 0 1017.6 -0.6 65
2019-06-16 16:00:00 23.5 10 Este 16 Nordeste 0 1017.8 0.1 62
2019-06-16 15:00:00 22.6 10 Este 15 Este 0 1018.2 0.4 64
2019-06-16 14:00:00 20.9 6 Nordeste 11 Este 0 1018.2 0.7 79
2019-06-16 13:00:00 20.1 3 Nordeste 8 Este 0 1017.7 0.5 82
2019-06-16 12:00:00 19.4 0 Calma 4 Sur 0 1017.8 1.4 86
2019-06-16 11:00:00 19.4 2 Sudeste 9 Sudeste 0 1017.5 0.9 87
2019-06-16 10:00:00 19 2 Sudeste 11 Este 0 1017.2 1.2 88
2019-06-16 09:00:00 17.9 8 Nordeste 13 Nordeste 0 1016.4 0.8 97
2019-06-16 08:00:00 18 7 Norte 18 Este 0 1016.6 1.4 98
2019-06-16 07:00:00 18 6 Nordeste 18 Este 0 1016 0.8 94
2019-06-16 06:00:00 18 15 Este 29 Este 0 1015.6 0.4 95
2019-06-16 05:00:00 17.6 17 Este 24 Este 0 1015.2 -0.3 98
2019-06-16 04:00:00 17.7 12 Este 17 Este 0 1015.2 -0.8 96
2019-06-16 03:00:00 17.6 9 Este 14 Este 0 1015.2 -0.9 98
2019-06-16 02:00:00 17.7 4 Este 12 Este 0 1015.5 -0.3 98
2019-06-16 01:00:00 17.9 6 Nordeste 10 Este 0 1016 0.8 96
2019-06-16 00:00:00 18 6 Este 10 Este 0 1016.1 2.1 95
2019-06-15 23:00:00 18.4 5 Nordeste 10 Este 0 1015.8 1.6 90
2019-06-15 22:00:00 19 10 Este 17 Nordeste 0 1015.2 0.9 87
2019-06-15 21:00:00 21 6 Sudoeste 13 Sudoeste 0 1014 -0.5 74
2019-06-15 20:00:00 23.1 5 Sudoeste 18 Oeste 0 1014.2 -0.9 64
2019-06-15 19:00:00 25.1 5 Sudoeste 18 Sudoeste 0 1014.3 -1 53
2019-06-15 18:00:00 24.5 6 Sudoeste 30 Sur 0 1014.5 -1.2 54
2019-06-15 17:00:00 23.4 10 Sudoeste 26 Sudoeste 0 1015.1 -0.8 57
2019-06-15 16:00:00 22.9 6 Sudoeste 28 Oeste 0 1015.3 -0.9 58
2019-06-15 15:00:00 21.9 10 Sudoeste 30 Sur 0 1015.7 -0.9 60
2019-06-15 14:00:00 22.1 10 Sudoeste 29 Sudoeste 0 1015.9 -0.9 57
2019-06-15 13:00:00 21 11 Sudoeste 20 Sudoeste 0 1016.2 -0.5 65
2019-06-15 12:00:00 21.7 8 Nordeste 14 Norte 0 1016.6 0 65
2019-06-15 11:00:00 21.8 3 Sur 10 Sur 0 1016.8 0.4 56
2019-06-15 10:00:00 19.9 4 Sudeste 7 Sudoeste 0 1016.7 0.7 64
2019-06-15 09:00:00 18.3 7 Sur 15 Sudeste 0 1016.6 0.9 72
2019-06-15 08:00:00 18.5 10 Sudeste 14 Sudeste 0 1016.4 1 70
2019-06-15 07:00:00 18 6 Sudeste 9 Este 0 1016 0.3 71
2019-06-15 06:00:00 18 2 Sudoeste 13 Sudeste 0 1015.7 0 74
2019-06-15 05:00:00 18.5 2 Oeste 12 Sur 0 1015.4 -0.5 70
2019-06-15 04:00:00 17.8 3 Sur 14 Sur 0 1015.7 -0.4 81
2019-06-15 03:00:00 17.6 8 Sur 14 Sur 0 1015.7 -0.1 87
2019-06-15 02:00:00 18.2 4 Sur 12 Sur 0 1015.9 0.5 83
2019-06-15 01:00:00 18.3 6 Sudoeste 13 Sur 0 1016.1 1.4 80
2019-06-15 00:00:00 18.6 3 Sudoeste 17 Sudoeste 0 1015.8 1.2 76
2019-06-14 23:00:00 20.5 4 Sur 16 Oeste 0 1015.4 0.9 61
2019-06-14 22:00:00 21.2 4 Oeste 20 Oeste 0 1014.7 0.4 59
2019-06-14 21:00:00 21.8 10 Oeste 30 Oeste 0 1014.6 -0.1 57
2019-06-14 20:00:00 22.2 12 Oeste 30 Oeste 0 1014.5 -0.1 54
2019-06-14 19:00:00 22.3 10 Oeste 40 Oeste 0 1014.3 -0.3 54
2019-06-14 18:00:00 22.5 11 Oeste 41 Oeste 0 1014.7 0 52
2019-06-14 17:00:00 22.2 8 Oeste 44 Oeste 0 1014.6 -0.5 55
2019-06-14 16:00:00 22 11 Oeste 43 Oeste 0 1014.6 -0.6 59
2019-06-14 15:00:00 21.3 9 Oeste 46 Oeste 0 1014.7 -0.3 63
2019-06-14 14:00:00 20.7 12 Sudoeste 42 Oeste 0 1015.1 0.3 65
2019-06-14 13:00:00 20.6 10 Sudoeste 40 Oeste 0 1015.2 0.8 65
2019-06-14 12:00:00 19.8 9 Oeste 44 Oeste 0 1015 1.2 71
2019-06-14 11:00:00 19.3 14 Oeste 42 Oeste 0 1014.8 1.2 73
2019-06-14 10:00:00 19.1 14 Oeste 42 Oeste 0 1014.4 1.4 71
2019-06-14 09:00:00 18.7 17 Oeste 44 Oeste 0 1013.8 1.4 72
2019-06-14 08:00:00 18.3 12 Oeste 36 Oeste 0 1013.6 1.9 76
2019-06-14 07:00:00 18.5 12 Oeste 32 Oeste 0 1013 1.7 78
2019-06-14 06:00:00 19.1 12 Oeste 34 Oeste 0 1012.4 0.8 80
2019-06-14 05:00:00 18.9 8 Oeste 23 Oeste 0 1011.7 -0.9 91
2019-06-14 04:00:00 19.6 4 Sudoeste 12 Oeste 0 1011.3 -1.6 95
2019-06-14 03:00:00 20.1 3 Oeste 18 Oeste 0 1011.6 -0.9 93
2019-06-14 02:00:00 19.9 4 Sudoeste 11 Sudoeste 0 1012.6 1 92
2019-06-14 01:00:00 20.6 2 Sudoeste 17 Oeste 0 1012.9 2.2 89
2019-06-14 00:00:00 21.1 5 Oeste 20 Oeste 0 1012.5 3 85
2019-06-13 23:00:00 21 4 Oeste 14 Oeste 0 1011.6 2.5 85
2019-06-13 22:00:00 21 5 Oeste 19 Oeste 0 1010.7 1.9 85
2019-06-13 21:00:00 21.1 3 Sudoeste 12 Sudoeste 0 1009.5 0.5 85
2019-06-13 20:00:00 21.3 5 Sur 9 Sur 0 1009.1 -0.3 87
2019-06-13 19:00:00 21.6 6 Sur 11 Sur 0 1008.8 -1 83
2019-06-13 18:00:00 23.1 3 Sudeste 8 Sur 0 1009 -1.1 77
2019-06-13 17:00:00 23.2 4 Sudeste 10 Sudeste 0 1009.4 -1 76
2019-06-13 16:00:00 23.4 6 Este 13 Sudeste 0 1009.8 -0.3 77
2019-06-13 15:00:00 22.8 3 Este 9 Este 0 1010.1 -0.3 79
2019-06-13 14:00:00 22.1 2 Sudeste 9 Sudeste 0 1010.4 0.1 79
2019-06-13 13:00:00 22.1 3 Nordeste 10 Este 0 1010.1 -0.2 82
2019-06-13 12:00:00 21.8 3 Sudeste 10 Este 0 1010.4 0.3 83
2019-06-13 11:00:00 21.2 3 Nordeste 9 Nordeste 0 1010.3 0.2 85
2019-06-13 10:00:00 20.4 4 Nordeste 8 Nordeste 0 1010.3 0.7 90
2019-06-13 09:00:00 19.8 0 Calma 4 Sudeste 0 1010.1 0.5 91
2019-06-13 08:00:00 19.2 0 Calma 6 Noroeste 0 1010.1 0.3 90
2019-06-13 07:00:00 19 0 Calma 8 Oeste 0 1009.6 -0.5 90
2019-06-13 06:00:00 18.9 0 Calma 4 Sudoeste 0 1009.6 -1.1 93
2019-06-13 05:00:00 19 0 Calma 12 Este 0 1009.8 -1.5 93
2019-06-13 04:00:00 19 6 Este 14 Nordeste 0 1010.1 -1.4 93
2019-06-13 03:00:00 18.9 8 Nordeste 17 Nordeste 0 1010.7 -1.1 94
2019-06-13 02:00:00 18.6 7 Este 14 Este 0 1011.3 -0.3 95
2019-06-13 01:00:00 18.7 8 Nordeste 14 Nordeste 0 1011.5 0.3 95
2019-06-13 00:00:00 18.9 7 Nordeste 14 Este 0 1011.8 1.4 94
2019-06-12 23:00:00 19 6 Nordeste 13 Nordeste 0 1011.6 1.4 93
2019-06-12 22:00:00 19.3 8 Este 11 Este 0 1011.2 0.6 90
2019-06-12 21:00:00 19.9 7 Nordeste 10 Nordeste 0 1010.4 -0.7 87
2019-06-12 20:00:00 21.2 7 Este 20 Este 0 1010.2 -1.5 82
2019-06-12 19:00:00 21.4 9 Este 18 Nordeste 0 1010.6 -1.3 81
2019-06-12 18:00:00 21.7 11 Nordeste 16 Nordeste 0 1011.1 -1.1 79
2019-06-12 17:00:00 22.1 7 Este 13 Este 0 1011.7 -1 77
2019-06-12 16:00:00 22.1 8 Este 13 Este 0 1011.9 -1.1 76
2019-06-12 15:00:00 21.3 7 Este 14 Nordeste 0 1012.2 -0.9 77
2019-06-12 14:00:00 20.6 11 Nordeste 16 Nordeste 0 1012.7 -0.3 79
2019-06-12 13:00:00 20.1 10 Nordeste 17 Este 0 1013 0.1 81
2019-06-12 12:00:00 19.8 11 Este 21 Este 0 1013.1 0.3 83
2019-06-12 11:00:00 19.1 12 Este 22 Este 0 1013 0.8 86
2019-06-12 10:00:00 19.2 15 Este 29 Este 0 1012.9 1 86
2019-06-12 09:00:00 18.8 14 Este 26 Nordeste 0 1012.8 1.5 90
2019-06-12 08:00:00 18.7 17 Este 34 Este 0 1012.2 1.3 91
2019-06-12 07:00:00 18.5 17 Este 30 Nordeste 0 1011.9 1.1 93
2019-06-12 06:00:00 18.7 20 Nordeste 36 Este 0 1011.3 1.1 95
2019-06-12 05:00:00 19 24 Nordeste 40 Nordeste 0 1010.9 2.8 95
2019-06-12 04:00:00 19.1 21 Este 42 Este 0 1010.8 2.9 94
2019-06-12 03:00:00 19.3 29 Este 59 Este 0 1010.2 2 88
2019-06-12 02:00:00 23.3 3 Sudoeste 19 Norte 0 1008.1 0.2 54
2019-06-12 01:00:00 24.8 0 Calma 21 Noroeste 0 1007.9 0.7 52
2019-06-12 00:00:00 24.4 0 Calma 17 Oeste 0 1008.2 1 57
2019-06-11 23:00:00 22.7 0 Calma 18 Sudoeste 0 1007.9 0.8 65
2019-06-11 22:00:00 21.7 4 Oeste 21 Sudoeste 0 1007.2 0.2 71
2019-06-11 21:00:00 22.5 7 Sudoeste 19 Sudoeste 0 1007.2 -0.1 67
2019-06-11 20:00:00 23.8 5 Oeste 21 Sudoeste 0 1007.1 -0.1 64
2019-06-11 19:00:00 22.8 6 Oeste 29 Oeste 0 1007 -0.8 65
2019-06-11 18:00:00 24.2 9 Oeste 37 Oeste 0 1007.3 -0.5 61
2019-06-11 17:00:00 24 11 Oeste 43 Oeste 0 1007.2 -1.2 61
2019-06-11 16:00:00 23.4 12 Sudoeste 40 Oeste 0 1007.8 -0.8 64
2019-06-11 15:00:00 24.7 11 Oeste 44 Oeste 0 1007.8 -1.5 57
2019-06-11 14:00:00 24 9 Oeste 33 Oeste 0 1008.4 -1.1 59
2019-06-11 13:00:00 23.3 8 Oeste 30 Oeste 0 1008.6 -0.9 57
2019-06-11 12:00:00 21.9 8 Oeste 27 Sudoeste 0 1009.3 0 60
2019-06-11 11:00:00 20.7 8 Oeste 32 Oeste 0 1009.5 0.5 66
2019-06-11 10:00:00 20.8 7 Oeste 26 Sudoeste 0 1009.5 0.6 69
2019-06-11 09:00:00 19.4 0 Calma 12 Sudoeste 0 1009.3 0.6 74
2019-06-11 08:00:00 20.4 5 Sudoeste 17 Sudoeste 0 1009 -0.3 67
2019-06-11 07:00:00 22 2 Oeste 16 Oeste 0 1008.9 -0.8 55
2019-06-11 06:00:00 20 9 Sur 14 Sur 0 1008.7 -1.9 70
2019-06-11 05:00:00 19.4 2 Norte 9 Oeste 0 1009.3 -1.9 71
2019-06-11 04:00:00 18.7 3 Sur 8 Sudoeste 0 1009.7 -2 80
2019-06-11 03:00:00 18.8 3 Sudoeste 18 Nordeste 0 1010.6 -1.4 79
2019-06-11 02:00:00 19.7 3 Nordeste 11 Oeste 0 1011.2 -0.8 75
2019-06-11 01:00:00 20.2 4 Sudoeste 10 Sudoeste 0 1011.7 0.3 71
2019-06-11 00:00:00 21.5 3 Oeste 10 Sudeste 0 1012 0.6 65
2019-06-10 23:00:00 22.6 0 Calma 14 Oeste 0 1012 0.6 60
2019-06-10 22:00:00 23.2 4 Oeste 12 Oeste 0 1011.4 -0.3 61
2019-06-10 21:00:00 24.3 4 Sudoeste 26 Noroeste 0 1011.4 -0.8 58
2019-06-10 20:00:00 24.9 8 Oeste 33 Oeste 0 1011.4 -1.4 58
2019-06-10 19:00:00 24.4 9 Oeste 37 Oeste 0 1011.7 -1.7 60
2019-06-10 18:00:00 24 9 Oeste 37 Oeste 0 1012.2 -1.7 63
2019-06-10 17:00:00 23.2 10 Oeste 39 Oeste 0 1012.8 -1.5 66
2019-06-10 16:00:00 22.5 9 Oeste 29 Sudoeste 0 1013.4 -1.4 70
2019-06-10 15:00:00 21.5 11 Sudoeste 43 Sudoeste 0 1013.9 -1 72
2019-06-10 14:00:00 21.9 9 Sudoeste 37 Sudoeste 0 1014.3 -0.6 70
2019-06-10 13:00:00 20.8 11 Sudoeste 32 Sudoeste 0 1014.8 -0.5 74
2019-06-10 12:00:00 21.2 7 Sudoeste 29 Sur 0 1014.9 0 71
2019-06-10 11:00:00 24.7 10 Noroeste 22 Oeste 0 1014.9 0.4 48
2019-06-10 10:00:00 23.4 5 Oeste 17 Oeste 0 1015.3 1.3 53
2019-06-10 09:00:00 22.6 5 Norte 22 Noroeste 0 1014.9 0.9 55
2019-06-10 08:00:00 21.8 8 Oeste 22 Oeste 0 1014.5 0.5 56
2019-06-10 07:00:00 22 4 Oeste 15 Sudeste 0 1014 -0.1 56
2019-06-10 06:00:00 21.7 2 Oeste 26 Norte 0 1014 -0.3 60
2019-06-10 05:00:00 22.1 3 Norte 17 Nordeste 0 1014 -1 60
2019-06-10 04:00:00 21.3 12 Sur 21 Oeste 0 1014.1 -1.1 64
2019-06-10 03:00:00 23.1 7 Oeste 15 Oeste 0 1014.3 -0.8 55
2019-06-10 02:00:00 19.3 6 Sudoeste 16 Sur 0 1015 0.1 77
2019-06-10 01:00:00 19.9 3 Sudoeste 14 Oeste 0 1015.2 0.8 69
2019-06-10 00:00:00 21.5 4 Oeste 15 Oeste 0 1015.1 0.9 57
2019-06-09 23:00:00 22.4 4 Oeste 19 Oeste 0 1014.9 0.6 53
2019-06-09 22:00:00 23.3 7 Oeste 24 Oeste 0 1014.4 0.4 50
2019-06-09 21:00:00 24.7 10 Oeste 26 Oeste 0 1014.2 -0.3 48
2019-06-09 20:00:00 25.3 12 Oeste 33 Oeste 0 1014.3 -0.5 48
2019-06-09 19:00:00 25.3 11 Oeste 38 Oeste 0 1014 -1.2 54
2019-06-09 18:00:00 25.2 9 Oeste 36 Noroeste 0 1014.5 -1.2 56
2019-06-09 17:00:00 24.7 9 Oeste 35 Oeste 0 1014.8 -1.7 58
2019-06-09 16:00:00 22.9 15 Sudoeste 33 Sur 0.2 1015.2 -1.8 69
2019-06-09 15:00:00 22.8 11 Sudoeste 29 Sudoeste 0 1015.7 -1.3 74
2019-06-09 14:00:00 21.3 8 Sudoeste 26 Sudoeste 0 1016.5 -0.5 82
2019-06-09 13:00:00 19.9 13 Sudoeste 23 Sudoeste 0 1017 -0.3 95
2019-06-09 12:00:00 20.1 11 Sudoeste 23 Sudoeste 0 1017 -0.4 94
2019-06-09 11:00:00 20.2 9 Sudoeste 20 Sudoeste 0 1017 -0.3 92
2019-06-09 10:00:00 20 4 Sudoeste 14 Sudoeste 0 1017.3 0 95
2019-06-09 09:00:00 20.2 3 Sur 6 Sur 0 1017.4 0.3 95
2019-06-09 08:00:00 19.9 0 Calma 3 Sur 0 1017.3 0.1 96
2019-06-09 07:00:00 19.7 0 Calma 5 Norte 0 1017.3 -0.2 95
2019-06-09 06:00:00 19.7 2 Nordeste 6 Este 0 1017.1 -0.8 96
2019-06-09 05:00:00 19.9 3 Nordeste 4 Nordeste 0 1017.2 -1 95
2019-06-09 04:00:00 20.2 0 Calma 5 Este 0 1017.5 -0.9 93
2019-06-09 03:00:00 20.5 3 Sudeste 8 Sudeste 0 1017.9 -0.9 91
2019-06-09 02:00:00 20.8 6 Este 10 Nordeste 0 1018.2 -0.2 92
2019-06-09 01:00:00 20.7 4 Nordeste 8 Nordeste 0 1018.4 0.8 91
2019-06-09 00:00:00 20.9 3 Este 6 Este 0 1018.8 1.4 90
2019-06-08 23:00:00 21 4 Nordeste 9 Este 0 1018.4 1.3 89
2019-06-08 22:00:00 21.1 6 Este 10 Nordeste 0 1017.6 0.3 87
2019-06-08 21:00:00 21.8 6 Este 14 Este 0 1017.4 -0.1 84
2019-06-08 20:00:00 22.7 7 Este 14 Este 0 1017.1 -0.4 80
2019-06-08 19:00:00 22.9 5 Este 14 Nordeste 0 1017.3 -0.4 82
2019-06-08 18:00:00 23 8 Nordeste 16 Nordeste 0 1017.5 -0.6 84
2019-06-08 17:00:00 22.8 11 Nordeste 24 Este 0 1017.5 -0.7 84
2019-06-08 16:00:00 22 15 Este 26 Este 0 1017.7 -0.7 85
2019-06-08 15:00:00 22 17 Este 24 Este 0 1018.1 0.1 84
2019-06-08 14:00:00 21.8 13 Este 20 Este 0 1018.2 0.9 85
2019-06-08 13:00:00 21.2 11 Este 21 Nordeste 0 1018.4 1.3 84
2019-06-08 12:00:00 20.8 14 Este 23 Este 0 1018 1.3 85
2019-06-08 11:00:00 21 15 Este 28 Este 0 1017.3 1.1 82
2019-06-08 10:00:00 19.8 10 Este 20 Este 0 1017.1 1.4 91
2019-06-08 09:00:00 19.8 14 Este 27 Este 0 1016.7 1.1 89
2019-06-08 08:00:00 19.4 17 Nordeste 30 Nordeste 0 1016.2 0.7 90
2019-06-08 07:00:00 19.4 18 Este 34 Nordeste 0 1015.7 1.1 88
2019-06-08 06:00:00 18.8 19 Nordeste 33 Este 0 1015.6 1.1 93
2019-06-08 05:00:00 18.3 20 Este 31 Este 0 1015.5 1 95
2019-06-08 04:00:00 20.7 6 Nordeste 10 Nordeste 0 1014.6 0.4 56
2019-06-08 03:00:00 20.3 0 Calma 8 Sudoeste 0 1014.5 0 65
2019-06-08 02:00:00 20.2 4 Sudoeste 8 Sudoeste 0 1014.5 0.3 74
2019-06-08 01:00:00 20.7 3 Sudoeste 9 Sur 0 1014.2 0.4 68
2019-06-08 00:00:00 20.7 4 Oeste 12 Sudoeste 0 1014.5 0.8 75
2019-06-07 23:00:00 20.5 4 Sudoeste 13 Sur 0 1014.2 0.6 79
2019-06-07 22:00:00 22.8 5 Sur 14 Sur 0 1013.8 0.1 66
2019-06-07 21:00:00 24.8 4 Sudoeste 22 Sudoeste 0 1013.7 -0.3 55
2019-06-07 20:00:00 24.3 4 Oeste 23 Noroeste 0 1013.6 -0.8 60
2019-06-07 19:00:00 24.1 5 Oeste 24 Oeste 0 1013.7 -0.8 63
2019-06-07 18:00:00 22.8 6 Oeste 31 Oeste 0 1014 -0.7 67
2019-06-07 17:00:00 21.9 10 Sudoeste 35 Sudoeste 0 1014.4 -0.3 69
2019-06-07 16:00:00 21.1 12 Sudoeste 29 Sudoeste 0 1014.5 -0.2 76
2019-06-07 15:00:00 21.5 9 Sudoeste 24 Sur 0 1014.7 0.2 76
2019-06-07 14:00:00 20.5 15 Sur 28 Sur 0 1014.7 0.5 85
2019-06-07 13:00:00 20.2 14 Sur 23 Sudoeste 0 1014.7 0.6 84
2019-06-07 12:00:00 20.3 7 Sur 23 Sudeste 0 1014.5 0.9 82
2019-06-07 11:00:00 21.4 5 Sur 25 Nordeste 0 1014.2 1.1 72
2019-06-07 10:00:00 21.7 6 Este 14 Nordeste 0 1014.1 1.6 69
2019-06-07 09:00:00 20.7 3 Oeste 14 Oeste 0 1013.6 1.6 69
2019-06-07 08:00:00 19.8 4 Oeste 16 Noroeste 0 1013.1 1.5 70
2019-06-07 07:00:00 18.8 4 Sur 9 Oeste 0 1012.5 1.1 72
2019-06-07 06:00:00 19.1 2 Sudeste 13 Nordeste 0 1012 0.9 76
2019-06-07 05:00:00 19.6 2 Noroeste 14 Oeste 0 1011.6 0.5 65
2019-06-07 04:00:00 19.6 4 Oeste 13 Oeste 0 1011.4 0.2 63
2019-06-07 03:00:00 19.2 6 Sur 14 Sur 0 1011.1 0 65
2019-06-07 02:00:00 19.3 5 Noroeste 15 Sudoeste 0 1011.1 0.3 65
2019-06-07 01:00:00 19.4 5 Oeste 31 Oeste 0 1011.2 0.9 65
2019-06-07 00:00:00 20.1 11 Oeste 28 Oeste 0 1011.1 1.4 60
2019-06-06 23:00:00 20.5 6 Sudoeste 22 Oeste 0 1010.8 1.3 57
2019-06-06 22:00:00 23 5 Oeste 25 Oeste 0 1010.3 0.4 47
2019-06-06 21:00:00 23.9 5 Oeste 32 Oeste 0 1009.7 -0.7 47
2019-06-06 20:00:00 24 6 Oeste 23 Oeste 0 1009.5 -1.4 54
2019-06-06 19:00:00 20.5 12 Sudoeste 22 Sur 0 1009.9 -1.5 77
2019-06-06 18:00:00 22.2 14 Sudoeste 24 Sudoeste 0 1010.4 -1.6 61
2019-06-06 17:00:00 22.9 8 Sudoeste 26 Oeste 0 1010.9 -1.5 53
2019-06-06 16:00:00 22.5 8 Sudoeste 25 Sudoeste 0 1011.4 -1 57
2019-06-06 15:00:00 22.1 10 Sudoeste 21 Sudoeste 0 1012 0 59
2019-06-06 14:00:00 20.5 11 Sudoeste 19 Sur 0 1012.4 0.4 73
2019-06-06 13:00:00 19.3 14 Sudoeste 25 Sur 0 1012.4 0.1 83
2019-06-06 12:00:00 20 15 Sudoeste 23 Sudoeste 0 1012 0 71
2019-06-06 11:00:00 21.2 4 Este 14 Sudoeste 0 1012 -0.1 68
2019-06-06 10:00:00 19.4 9 Sudoeste 15 Sudoeste 0 1012.3 0.4 76
2019-06-06 09:00:00 19.8 0 Calma 5 Nordeste 0 1012 0.3 63
2019-06-06 08:00:00 19 0 Calma 9 Sur 0 1012.1 0.4 69
2019-06-06 07:00:00 18.5 4 Sudoeste 9 Sudoeste 0 1011.9 0 77
2019-06-06 06:00:00 19.2 0 Calma 15 Sudoeste 0 1011.7 -0.7 76
2019-06-06 05:00:00 20.4 4 Oeste 12 Sudoeste 0 1011.7 -1.1 57
2019-06-06 04:00:00 21.2 3 Oeste 19 Oeste 0 1011.9 -1.1 52
2019-06-06 03:00:00 21.6 5 Oeste 14 Noroeste 0 1012.4 -0.8 50
2019-06-06 02:00:00 21.8 0 Calma 23 Noroeste 0 1012.8 -0.1 52
2019-06-06 01:00:00 23.2 10 Noroeste 29 Noroeste 0 1013 1 47
2019-06-06 00:00:00 23.2 11 Noroeste 28 Noroeste 0 1013.2 1.5 50
2019-06-05 23:00:00 21.7 3 Oeste 11 Oeste 0 1012.9 1.5 60
2019-06-05 22:00:00 22 3 Oeste 8 Sudoeste 0 1012 0.4 65
2019-06-05 21:00:00 21.9 3 Sudoeste 18 Sudoeste 0 1011.7 -0.1 68
2019-06-05 20:00:00 21.6 5 Sudoeste 17 Oeste 0 1011.4 -0.7 71
2019-06-05 19:00:00 21.4 6 Sudoeste 24 Sudoeste 0 1011.6 -0.8 71
2019-06-05 18:00:00 21.1 10 Sudoeste 38 Sur 0 1011.8 -0.8 75
2019-06-05 17:00:00 20.3 20 Sur 39 Sur 0 1012.1 -1 78
2019-06-05 16:00:00 22.3 15 Sudoeste 28 Sudoeste 0 1012.4 -0.8 57
2019-06-05 15:00:00 20.8 17 Sur 30 Sudoeste 0 1012.6 -0.6 67
2019-06-05 14:00:00 23.4 0 Calma 36 Noroeste 0 1013.1 -0.2 43
2019-06-05 13:00:00 23.6 11 Noroeste 31 Norte 0 1013.2 0.3 41
2019-06-05 12:00:00 22.5 8 Norte 29 Nordeste 0 1013.2 0.4 44
2019-06-05 11:00:00 21.4 16 Nordeste 38 Norte 0 1013.3 1.2 46
2019-06-05 10:00:00 20.6 5 Este 26 Norte 0 1012.9 1.4 49
2019-06-05 09:00:00 20.2 10 Norte 35 Norte 0 1012.8 1.8 52
2019-06-05 08:00:00 20.3 10 Noroeste 31 Noroeste 0 1012.1 1.4 63
2019-06-05 07:00:00 20.8 6 Noroeste 22 Noroeste 0 1011.5 0.7 66
2019-06-05 06:00:00 20.1 4 Oeste 14 Oeste 0 1011 -0.1 82
2019-06-05 05:00:00 19.8 5 Oeste 22 Oeste 0 1010.7 -0.3 90
2019-06-05 04:00:00 19.9 8 Oeste 32 Oeste 0 1010.8 0.4 90
2019-06-05 03:00:00 20.2 11 Oeste 35 Oeste 0 1011.1 1.2 89
2019-06-05 02:00:00 20.2 13 Oeste 36 Oeste 0 1011 1.8 86
2019-06-05 01:00:00 21.2 16 Oeste 34 Oeste 0 1010.4 1.9 78
2019-06-05 00:00:00 22.1 8 Oeste 39 Oeste 0 1009.9 1.9 74
2019-06-04 23:00:00 22.6 16 Oeste 35 Oeste 0 1009.2 1.5 70
2019-06-04 22:00:00 23.7 12 Oeste 45 Oeste 0 1008.5 0.6 63
2019-06-04 21:00:00 24.6 13 Oeste 39 Sudoeste 0 1008 -0.3 59
2019-06-04 20:00:00 26.6 14 Oeste 41 Oeste 0 1007.7 -1.5 54
2019-06-04 19:00:00 28 9 Oeste 29 Sudoeste 0 1007.9 -1.9 53
2019-06-04 18:00:00 27.8 6 Oeste 31 Oeste 0 1008.3 -2.5 56
2019-06-04 17:00:00 23.8 12 Sudoeste 30 Sudoeste 0 1009.2 -2.4 79
2019-06-04 16:00:00 21.8 21 Sudoeste 31 Sudoeste 0 1009.8 -2.7 86
2019-06-04 15:00:00 21.3 15 Sudoeste 31 Sudoeste 0 1010.8 -1.8 85
2019-06-04 14:00:00 21.1 19 Sur 30 Sur 0 1011.6 -0.6 82
2019-06-04 13:00:00 20.5 15 Sur 21 Sur 0 1012.5 -0.1 84
2019-06-04 12:00:00 20.1 9 Sudoeste 29 Sudoeste 0 1012.6 0 92
2019-06-04 11:00:00 20.8 7 Nordeste 16 Sudoeste 0 1012.2 -0.2 82
2019-06-04 10:00:00 20.5 7 Sudoeste 18 Sudoeste 0 1012.6 0.3 82
2019-06-04 09:00:00 19.1 3 Oeste 13 Oeste 0 1012.6 0.7 71
2019-06-04 08:00:00 17.6 7 Oeste 13 Oeste 0 1012.4 0.2 67
2019-06-04 07:00:00 17.8 2 Noroeste 12 Oeste 0 1012.3 -0.8 66
2019-06-04 06:00:00 17.9 3 Noroeste 14 Oeste 0 1011.9 -1.7 65
2019-06-04 05:00:00 17.9 0 Calma 11 Oeste 0 1012.2 -2 68
2019-06-04 04:00:00 18.5 3 Noroeste 11 Oeste 0 1013.1 -1.9 69
2019-06-04 03:00:00 18.6 5 Oeste 10 Oeste 0 1013.6 -1.6 71
2019-06-04 02:00:00 19.6 0 Calma 8 Oeste 0 1014.2 -0.8 72
2019-06-04 01:00:00 20 3 Oeste 8 Oeste 0 1015 0.4 74
2019-06-04 00:00:00 20.4 6 Oeste 10 Oeste 0 1015.2 0.4 76
2019-06-03 23:00:00 20.9 0 Calma 5 Oeste 0 1015 0.1 86
2019-06-03 22:00:00 21.1 2 Sudoeste 5 Sudeste 0 1014.6 -0.4 85
2019-06-03 21:00:00 21.5 3 Sur 9 Sur 0 1014.8 -0.8 85
2019-06-03 20:00:00 21.9 8 Sudoeste 12 Sudoeste 0 1014.9 -0.9 86
2019-06-03 19:00:00 22.4 6 Sur 10 Sur 0 1015 -1.4 84
2019-06-03 18:00:00 22.4 6 Sur 10 Sur 0 1015.6 -1.2 83
2019-06-03 17:00:00 22.1 6 Sur 9 Sur 0 1015.8 -1.6 84
2019-06-03 16:00:00 21.9 6 Sur 10 Sur 0 1016.4 -1 84
2019-06-03 15:00:00 21.9 6 Sur 10 Sur 0 1016.8 -0.9 81
2019-06-03 14:00:00 21.6 6 Sur 11 Sur 0 1017.4 -0.1 79
2019-06-03 13:00:00 21.5 6 Sur 11 Sudeste 0 1017.4 0 77
2019-06-03 12:00:00 21.1 7 Sudeste 12 Sudoeste 0 1017.7 0.8 76
2019-06-03 11:00:00 20.7 7 Sudoeste 15 Sudoeste 0 1017.5 0.6 77
2019-06-03 10:00:00 20.7 9 Sudoeste 12 Sudoeste 0 1017.4 1 65
2019-06-03 09:00:00 19.9 3 Noroeste 10 Noroeste 0 1016.9 0.7 53
2019-06-03 08:00:00 18.5 7 Noroeste 11 Noroeste 0 1016.9 0.2 54
2019-06-03 07:00:00 18.5 5 Noroeste 13 Noroeste 0 1016.4 -0.4 55
2019-06-03 06:00:00 18.7 6 Noroeste 12 Noroeste 0 1016.2 -1.3 54
2019-06-03 05:00:00 18.9 6 Noroeste 12 Oeste 0 1016.7 -1.3 54
2019-06-03 04:00:00 19.2 3 Noroeste 9 Noroeste 0 1016.8 -1.6 54
2019-06-03 03:00:00 19.6 4 Noroeste 9 Oeste 0 1017.5 -1 53
2019-06-03 02:00:00 20.1 4 Noroeste 8 Oeste 0 1018 -0.2 55
2019-06-03 01:00:00 20.3 4 Noroeste 12 Oeste 0 1018.4 1 57
2019-06-03 00:00:00 21.2 0 Calma 6 Este 0 1018.5 1.5 77
2019-06-02 23:00:00 21.4 4 Nordeste 6 Nordeste 0 1018.2 1.5 70
2019-06-02 22:00:00 21.6 0 Calma 6 Sur 0 1017.4 0.5 66
2019-06-02 21:00:00 22.4 0 Calma 6 Sudeste 0 1017 -0.3 67
2019-06-02 20:00:00 22.7 5 Sudeste 8 Sudeste 0 1016.7 -1 66
2019-06-02 19:00:00 23 4 Sudeste 8 Sur 0 1016.9 -1 65
2019-06-02 18:00:00 23.4 5 Sudeste 9 Sudeste 0 1017.3 -0.9 63
2019-06-02 17:00:00 22.8 5 Sur 10 Sudeste 0 1017.7 -1.1 64
2019-06-02 16:00:00 22.9 8 Sur 11 Sur 0 1017.9 -1.4 63
2019-06-02 15:00:00 23.1 8 Sudeste 15 Sudeste 0 1018.2 -1 60
2019-06-02 14:00:00 22.9 9 Sudeste 12 Sudeste 0 1018.8 -0.3 60
2019-06-02 13:00:00 22.6 9 Sudeste 12 Sur 0 1019.3 0.3 60
2019-06-02 12:00:00 22.6 6 Sudeste 9 Sudeste 0 1019.2 0.7 62
2019-06-02 11:00:00 22 4 Sudeste 9 Este 0 1019.1 0.6 66
2019-06-02 10:00:00 21 5 Sudeste 8 Sudeste 0 1019 0.7 64
2019-06-02 09:00:00 19.8 4 Oeste 9 Oeste 0 1018.5 0.3 67
2019-06-02 08:00:00 18.2 5 Noroeste 10 Oeste 0 1018.5 0 68
2019-06-02 07:00:00 18.5 5 Noroeste 10 Noroeste 0 1018.3 -0.4 68
2019-06-02 06:00:00 19.1 4 Noroeste 8 Noroeste 0 1018.2 -1.2 67
2019-06-02 05:00:00 20.4 5 Este 14 Este 0 1018.5 -1.2 70
2019-06-02 04:00:00 20.8 10 Este 18 Este 0 1018.7 -1.1 68
2019-06-02 03:00:00 20.3 3 Nordeste 13 Nordeste 0 1019.4 -0.5 64
2019-06-02 02:00:00 21.2 7 Nordeste 18 Este 0 1019.7 0.2 67
2019-06-02 01:00:00 21.4 8 Nordeste 16 Nordeste 0 1019.8 1 65
2019-06-02 00:00:00 21.5 10 Este 17 Este 0 1019.9 1.5 65
2019-06-01 23:00:00 21.5 6 Este 18 Este 0 1019.5 1.3 65
2019-06-01 22:00:00 21.6 7 Este 16 Este 0 1018.8 0.3 63
2019-06-01 21:00:00 22.2 5 Este 13 Este 0 1018.4 -0.5 64
2019-06-01 20:00:00 23.1 5 Este 10 Este 0 1018.2 -1.1 63
2019-06-01 19:00:00 22.9 6 Nordeste 13 Este 0 1018.5 -1.4 63
2019-06-01 18:00:00 23.8 8 Este 15 Este 0 1018.9 -1.2 63
2019-06-01 17:00:00 23.6 6 Este 14 Este 0 1019.3 -0.8 62
2019-06-01 16:00:00 23.3 9 Sudeste 18 Sudeste 0 1019.9 -0.8 62
2019-06-01 15:00:00 23.7 13 Sudeste 17 Sudeste 0 1020.1 -0.5 60
2019-06-01 14:00:00 23.1 4 Este 14 Este 0 1020.1 -0.3 57
2019-06-01 13:00:00 23.1 10 Sudeste 19 Este 0 1020.7 0.5 60
2019-06-01 12:00:00 22.3 7 Este 13 Este 0 1020.6 0.7 65
2019-06-01 11:00:00 21.8 10 Sudeste 18 Este 0 1020.4 0.8 70
2019-06-01 10:00:00 21.3 10 Este 18 Este 0 1020.2 0.9 69
2019-06-01 09:00:00 20.7 8 Este 19 Este 0 1019.9 0.5 70
2019-06-01 08:00:00 19.6 7 Este 15 Nordeste 0 1019.6 0.1 75
2019-06-01 07:00:00 18.7 3 Noroeste 8 Noroeste 0 1019.3 -0.6 81
2019-06-01 06:00:00 18.7 3 Noroeste 9 Noroeste 0 1019.4 -0.7 81
2019-06-01 05:00:00 19.7 4 Este 15 Sudeste 0 1019.5 -1.2 82
2019-06-01 04:00:00 20.1 10 Sudeste 17 Sudeste 0 1019.9 -1.1 80
2019-06-01 03:00:00 20 9 Este 13 Este 0 1020.1 -0.8 79
2019-06-01 02:00:00 20.2 8 Este 13 Este 0 1020.7 0.2 78
2019-06-01 01:00:00 20.4 4 Este 13 Este 0 1021 1.2 77
2019-06-01 00:00:00 20.5 8 Este 13 Nordeste 0 1020.9 1.4 77
2019-05-31 23:00:00 20.8 8 Este 12 Este 0 1020.5 1.2 74
2019-05-31 22:00:00 21.1 8 Este 18 Este 0 1019.8 0 72
2019-05-31 21:00:00 21.8 7 Este 13 Este 0 1019.5 -0.7 68
2019-05-31 20:00:00 22.4 7 Este 12 Este 0 1019.3 -1.4 67
2019-05-31 19:00:00 22.6 5 Este 13 Nordeste 0 1019.8 -1.2 68
2019-05-31 18:00:00 22.9 7 Este 14 Este 0 1020.2 -1 68
2019-05-31 17:00:00 23.4 10 Este 21 Este 0 1020.7 -1 68
2019-05-31 16:00:00 23 13 Este 21 Este 0 1021 -0.7 69
2019-05-31 15:00:00 22.8 15 Este 23 Este 0 1021.2 -0.6 69
2019-05-31 14:00:00 22.5 9 Este 19 Este 0 1021.7 0.3 67
2019-05-31 13:00:00 21.8 9 Este 21 Nordeste 0 1021.7 0.2 68
2019-05-31 12:00:00 21.6 12 Este 18 Este 0 1021.8 0.6 70
2019-05-31 11:00:00 21.3 10 Este 17 Este 0 1021.4 0.4 71
2019-05-31 10:00:00 20.6 10 Este 17 Este 0 1021.5 0.8 73
2019-05-31 09:00:00 20 8 Este 18 Este 0 1021.2 0.6 76
2019-05-31 08:00:00 19.4 6 Nordeste 14 Nordeste 0 1021 0.1 77
2019-05-31 07:00:00 19.2 8 Este 16 Este 0 1020.7 -0.4 78
2019-05-31 06:00:00 19.4 9 Este 18 Este 0 1020.6 -0.9 79
2019-05-31 05:00:00 19.4 12 Este 21 Nordeste 0 1020.9 -1.1 78
2019-05-31 04:00:00 19.5 13 Este 20 Nordeste 0 1021.1 -1.5 80
2019-05-31 03:00:00 19.7 14 Este 25 Este 0 1021.5 -1.5 82
2019-05-31 02:00:00 19.8 13 Este 20 Este 0 1022 -0.7 78
2019-05-31 01:00:00 19.8 13 Este 22 Este 0 1022.6 0.5 79
2019-05-31 00:00:00 20 13 Este 23 Este 0 1023 1.2 79
2019-05-30 23:00:00 20.1 14 Este 25 Este 0 1022.7 1.1 78
2019-05-30 22:00:00 19.9 13 Este 23 Nordeste 0 1022.1 0.4 79
2019-05-30 21:00:00 20.4 12 Este 22 Este 0 1021.8 -0.4 79
2019-05-30 20:00:00 21.2 14 Este 21 Este 0 1021.6 -1.1 78
2019-05-30 19:00:00 22 12 Este 48 Este 0 1021.7 -1.1 79
2019-05-30 18:00:00 22.1 12 Este 21 Sudeste 0 1022.2 -0.7 77
2019-05-30 17:00:00 22 14 Este 26 Sudeste 0 1022.7 -0.5 77
2019-05-30 16:00:00 21.9 16 Este 22 Sudeste 0 1022.8 -0.7 76
2019-05-30 15:00:00 21.8 12 Este 20 Este 0 1022.9 -0.6 78
2019-05-30 14:00:00 21.7 10 Este 20 Este 0 1023.2 -0.1 80
2019-05-30 13:00:00 21.2 14 Este 21 Este 0 1023.5 0.4 82
2019-05-30 12:00:00 20.9 14 Este 26 Este 0 1023.5 1.1 84
2019-05-30 11:00:00 20.1 18 Este 26 Sudeste 0 1023.3 1.2 89
2019-05-30 10:00:00 19.9 13 Este 23 Este 0 1023.1 1.4 90
2019-05-30 09:00:00 19.6 13 Este 23 Sudeste 0 1022.4 1 89
2019-05-30 08:00:00 19.3 13 Este 22 Este 0 1022.1 0.7 88
2019-05-30 07:00:00 19.1 15 Este 24 Este 0 1021.7 0.3 87
2019-05-30 06:00:00 19.1 6 Este 15 Este 0 1021.4 0 92
2019-05-30 05:00:00 19.3 10 Este 20 Este 0 1021.4 -0.3 89
2019-05-30 04:00:00 19.3 12 Este 21 Este 0 1021.4 -0.2 88
2019-05-30 03:00:00 19.2 14 Este 23 Este 0 1021.4 -0.2 90
2019-05-30 02:00:00 19.5 15 Este 23 Este 0 1021.7 0.8 90
2019-05-30 01:00:00 19.6 15 Este 24 Este 0 1021.6 1.8 90
2019-05-30 00:00:00 19.6 17 Este 25 Este 0 1021.6 2.6 90
2019-05-29 23:00:00 19.8 18 Este 28 Este 0 1020.9 2.6 91
2019-05-29 22:00:00 20 18 Este 26 Este 0 1019.8 1.5 87
2019-05-29 21:00:00 20.6 17 Este 24 Nordeste 0 1019 0.7 82
2019-05-29 20:00:00 21.4 15 Este 22 Este 0 1018.3 -0.3 83
2019-05-29 19:00:00 22.1 14 Este 19 Este 0 1018.3 -0.7 82
2019-05-29 18:00:00 22.9 10 Este 14 Este 0 1018.3 -0.7 77
2019-05-29 17:00:00 23.2 9 Este 23 Este 0 1018.6 -0.8 74
2019-05-29 16:00:00 23.1 9 Este 14 Este 0 1019 -0.5 73
2019-05-29 15:00:00 23.1 7 Este 16 Sudeste 0 1019 -0.2 71
2019-05-29 14:00:00 23.1 11 Sudeste 15 Sudeste 0 1019.4 0.4 68
2019-05-29 13:00:00 22.9 8 Este 17 Este 0 1019.5 1 64
2019-05-29 12:00:00 22.7 9 Este 19 Este 0 1019.2 1.5 71
2019-05-29 11:00:00 22.3 8 Este 18 Este 0 1019 1.9 72
2019-05-29 10:00:00 21.4 12 Este 22 Este 0 1018.5 2.4 78
2019-05-29 09:00:00 20.8 12 Este 21 Nordeste 0 1017.7 1.9 90
2019-05-29 08:00:00 20.5 12 Este 24 Este 0 1017.1 1.5 92
2019-05-29 07:00:00 20.4 12 Nordeste 26 Este 0 1016.1 1 93
2019-05-29 06:00:00 20 13 Este 26 Este 0 1015.8 1.3 95
2019-05-29 05:00:00 20.4 18 Este 31 Nordeste 0 1015.6 1.6 91
2019-05-29 04:00:00 20.1 17 Este 29 Este 0 1015.1 1.7 98
2019-05-29 03:00:00 20 22 Este 30 Este 0 1014.5 1.3 99
2019-05-29 02:00:00 20.2 21 Este 27 Este 0 1014 1.3 99
2019-05-29 01:00:00 20.2 17 Este 22 Este 0 1013.4 1.4 98
2019-05-29 00:00:00 20.5 11 Este 18 Este 0 1013.2 1.5 97
2019-05-28 23:00:00 20.3 11 Este 16 Este 0 1012.7 1.4 96
2019-05-28 22:00:00 20.5 9 Este 16 Este 0 1012 0.8 95
2019-05-28 21:00:00 21.6 10 Este 15 Este 0 1011.7 0.4 92
2019-05-28 20:00:00 22.4 9 Este 13 Este 0 1011.3 0 89
2019-05-28 19:00:00 22.9 8 Este 13 Este 0 1011.2 -0.3 86
2019-05-28 18:00:00 23.6 8 Este 14 Este 0 1011.3 -0.3 84
2019-05-28 17:00:00 23.3 7 Este 12 Sudeste 0 1011.3 -0.2 84
2019-05-28 16:00:00 23 7 Este 12 Este 0 1011.5 -0.1 84
2019-05-28 15:00:00 22.3 5 Sudeste 10 Sudeste 0 1011.6 0.4 87
2019-05-28 14:00:00 22.1 5 Este 10 Este 0 1011.5 0.9 92
2019-05-28 13:00:00 21.6 6 Sudeste 11 Este 0 1011.6 1.3 94
2019-05-28 12:00:00 20.8 4 Este 9 Este 0 1011.2 1.2 95
2019-05-28 11:00:00 20.3 5 Sudeste 15 Sudeste 0 1010.6 0.8 95
2019-05-28 10:00:00 20 5 Este 13 Este 0 1010.3 1 95
2019-05-28 09:00:00 19.5 7 Este 12 Este 0 1010 1 94
2019-05-28 08:00:00 19.5 4 Nordeste 6 Nordeste 0 1009.8 0.9 89
2019-05-28 07:00:00 18.6 5 Noroeste 9 Noroeste 0 1009.3 0.4 87
2019-05-28 06:00:00 18.4 0 Calma 5 Nordeste 0 1009 -0.5 89
2019-05-28 05:00:00 18.6 0 Calma 11 Oeste 0 1008.9 -1.1 90
2019-05-28 04:00:00 18.1 0 Calma 4 Nordeste 0 1008.9 -1.7 96
2019-05-28 03:00:00 19.1 0 Calma 4 Nordeste 0 1009.5 -1.2 98
2019-05-28 02:00:00 19.1 0 Calma 4 Nordeste 0 1010 -0.4 98
2019-05-28 01:00:00 19.2 3 Nordeste 7 Este 0 1010.6 0.5 98
2019-05-28 00:00:00 19.6 3 Este 12 Este 0 1010.7 1.1 96